sensor_id;sensor_type;location;lat;lon;timestamp;P1;durP1;ratioP1;P2;durP2;ratioP2
11125;SDS011;5617;54.046;10.676;2023-08-06T00:00:52;3.13;;;1.77;;
11125;SDS011;5617;54.046;10.676;2023-08-06T00:03:00;1.70;;;1.60;;
11125;SDS011;5617;54.046;10.676;2023-08-06T00:05:08;2.83;;;1.80;;
11125;SDS011;5617;54.046;10.676;2023-08-06T00:07:16;1.73;;;1.53;;
11125;SDS011;5617;54.046;10.676;2023-08-06T00:09:24;3.43;;;1.70;;
11125;SDS011;5617;54.046;10.676;2023-08-06T00:11:35;2.43;;;1.90;;
11125;SDS011;5617;54.046;10.676;2023-08-06T00:13:47;2.03;;;1.80;;
11125;SDS011;5617;54.046;10.676;2023-08-06T00:15:55;3.43;;;2.10;;
11125;SDS011;5617;54.046;10.676;2023-08-06T00:18:03;3.20;;;2.13;;
11125;SDS011;5617;54.046;10.676;2023-08-06T00:20:11;2.23;;;1.70;;
11125;SDS011;5617;54.046;10.676;2023-08-06T00:22:19;3.07;;;2.10;;
11125;SDS011;5617;54.046;10.676;2023-08-06T00:24:27;3.90;;;1.93;;
11125;SDS011;5617;54.046;10.676;2023-08-06T00:26:36;4.27;;;1.77;;
11125;SDS011;5617;54.046;10.676;2023-08-06T00:28:46;2.57;;;2.10;;
11125;SDS011;5617;54.046;10.676;2023-08-06T00:30:56;4.13;;;1.97;;
11125;SDS011;5617;54.046;10.676;2023-08-06T00:33:04;3.40;;;1.87;;
11125;SDS011;5617;54.046;10.676;2023-08-06T00:35:19;3.90;;;1.90;;
11125;SDS011;5617;54.046;10.676;2023-08-06T00:37:27;3.00;;;1.80;;
11125;SDS011;5617;54.046;10.676;2023-08-06T00:39:35;2.20;;;1.93;;
11125;SDS011;5617;54.046;10.676;2023-08-06T00:41:43;2.50;;;2.13;;
11125;SDS011;5617;54.046;10.676;2023-08-06T00:43:51;2.80;;;1.93;;
11125;SDS011;5617;54.046;10.676;2023-08-06T00:45:59;2.37;;;2.13;;
11125;SDS011;5617;54.046;10.676;2023-08-06T00:48:07;4.77;;;2.10;;
11125;SDS011;5617;54.046;10.676;2023-08-06T00:50:15;5.17;;;2.40;;
11125;SDS011;5617;54.046;10.676;2023-08-06T00:52:23;2.27;;;2.07;;
11125;SDS011;5617;54.046;10.676;2023-08-06T00:54:31;2.53;;;1.90;;
11125;SDS011;5617;54.046;10.676;2023-08-06T00:56:41;2.50;;;2.30;;
11125;SDS011;5617;54.046;10.676;2023-08-06T00:58:52;5.07;;;2.23;;
11125;SDS011;5617;54.046;10.676;2023-08-06T01:01:03;4.03;;;2.30;;
11125;SDS011;5617;54.046;10.676;2023-08-06T01:03:11;2.77;;;1.93;;
11125;SDS011;5617;54.046;10.676;2023-08-06T01:05:19;3.33;;;1.90;;
11125;SDS011;5617;54.046;10.676;2023-08-06T01:07:33;2.33;;;2.13;;
11125;SDS011;5617;54.046;10.676;2023-08-06T01:09:50;2.43;;;1.87;;
11125;SDS011;5617;54.046;10.676;2023-08-06T01:12:09;4.23;;;2.30;;
11125;SDS011;5617;54.046;10.676;2023-08-06T01:14:31;2.57;;;1.97;;
11125;SDS011;5617;54.046;10.676;2023-08-06T01:16:45;4.13;;;2.43;;
11125;SDS011;5617;54.046;10.676;2023-08-06T01:18:53;3.87;;;2.30;;
11125;SDS011;5617;54.046;10.676;2023-08-06T01:21:02;2.43;;;2.23;;
11125;SDS011;5617;54.046;10.676;2023-08-06T01:23:10;2.93;;;2.03;;
11125;SDS011;5617;54.046;10.676;2023-08-06T01:25:18;4.43;;;2.40;;
11125;SDS011;5617;54.046;10.676;2023-08-06T01:27:26;3.97;;;2.47;;
11125;SDS011;5617;54.046;10.676;2023-08-06T01:29:41;2.83;;;2.30;;
11125;SDS011;5617;54.046;10.676;2023-08-06T01:31:52;3.70;;;2.53;;
11125;SDS011;5617;54.046;10.676;2023-08-06T01:34:01;3.13;;;2.27;;
11125;SDS011;5617;54.046;10.676;2023-08-06T01:36:10;5.17;;;2.50;;
11125;SDS011;5617;54.046;10.676;2023-08-06T01:38:19;4.33;;;2.20;;
11125;SDS011;5617;54.046;10.676;2023-08-06T01:40:28;3.73;;;2.13;;
11125;SDS011;5617;54.046;10.676;2023-08-06T01:42:36;2.93;;;2.37;;
11125;SDS011;5617;54.046;10.676;2023-08-06T01:44:44;2.93;;;2.30;;
11125;SDS011;5617;54.046;10.676;2023-08-06T01:46:52;2.93;;;2.10;;
11125;SDS011;5617;54.046;10.676;2023-08-06T01:49:00;3.70;;;2.40;;
11125;SDS011;5617;54.046;10.676;2023-08-06T01:51:07;3.10;;;2.27;;
11125;SDS011;5617;54.046;10.676;2023-08-06T01:53:20;5.30;;;2.47;;
11125;SDS011;5617;54.046;10.676;2023-08-06T01:55:28;5.53;;;2.57;;
11125;SDS011;5617;54.046;10.676;2023-08-06T01:57:36;2.93;;;2.30;;
11125;SDS011;5617;54.046;10.676;2023-08-06T01:59:44;2.57;;;2.37;;
11125;SDS011;5617;54.046;10.676;2023-08-06T02:01:52;3.80;;;2.10;;
11125;SDS011;5617;54.046;10.676;2023-08-06T02:03:59;3.97;;;2.37;;
11125;SDS011;5617;54.046;10.676;2023-08-06T02:06:07;3.83;;;2.20;;
11125;SDS011;5617;54.046;10.676;2023-08-06T02:08:15;4.40;;;2.20;;
11125;SDS011;5617;54.046;10.676;2023-08-06T02:10:24;4.10;;;2.73;;
11125;SDS011;5617;54.046;10.676;2023-08-06T02:12:32;2.90;;;2.20;;
11125;SDS011;5617;54.046;10.676;2023-08-06T02:14:40;5.10;;;2.47;;
11125;SDS011;5617;54.046;10.676;2023-08-06T02:16:47;4.73;;;2.50;;
11125;SDS011;5617;54.046;10.676;2023-08-06T02:19:00;3.27;;;2.40;;
11125;SDS011;5617;54.046;10.676;2023-08-06T02:21:08;3.37;;;2.37;;
11125;SDS011;5617;54.046;10.676;2023-08-06T02:23:16;5.07;;;2.87;;
11125;SDS011;5617;54.046;10.676;2023-08-06T02:25:25;5.03;;;2.60;;
11125;SDS011;5617;54.046;10.676;2023-08-06T02:27:33;2.40;;;2.20;;
11125;SDS011;5617;54.046;10.676;2023-08-06T02:29:40;3.00;;;2.40;;
11125;SDS011;5617;54.046;10.676;2023-08-06T02:31:48;3.60;;;2.50;;
11125;SDS011;5617;54.046;10.676;2023-08-06T02:33:56;3.73;;;2.27;;
11125;SDS011;5617;54.046;10.676;2023-08-06T02:36:04;3.87;;;2.27;;
11125;SDS011;5617;54.046;10.676;2023-08-06T02:38:12;3.57;;;2.10;;
11125;SDS011;5617;54.046;10.676;2023-08-06T02:40:20;5.53;;;2.90;;
11125;SDS011;5617;54.046;10.676;2023-08-06T02:42:30;3.90;;;3.07;;
11125;SDS011;5617;54.046;10.676;2023-08-06T02:44:37;3.40;;;2.50;;
11125;SDS011;5617;54.046;10.676;2023-08-06T02:46:44;3.57;;;2.57;;
11125;SDS011;5617;54.046;10.676;2023-08-06T02:48:52;3.60;;;2.63;;
11125;SDS011;5617;54.046;10.676;2023-08-06T02:51:00;4.30;;;2.37;;
11125;SDS011;5617;54.046;10.676;2023-08-06T02:53:08;3.73;;;2.53;;
11125;SDS011;5617;54.046;10.676;2023-08-06T02:55:16;3.20;;;2.30;;
11125;SDS011;5617;54.046;10.676;2023-08-06T02:57:26;3.57;;;2.37;;
11125;SDS011;5617;54.046;10.676;2023-08-06T02:59:42;2.70;;;2.50;;
11125;SDS011;5617;54.046;10.676;2023-08-06T03:01:50;3.00;;;2.30;;
11125;SDS011;5617;54.046;10.676;2023-08-06T03:03:59;6.13;;;2.70;;
11125;SDS011;5617;54.046;10.676;2023-08-06T03:06:06;3.90;;;2.50;;
11125;SDS011;5617;54.046;10.676;2023-08-06T03:08:14;2.53;;;2.10;;
11125;SDS011;5617;54.046;10.676;2023-08-06T03:10:22;3.10;;;2.27;;
11125;SDS011;5617;54.046;10.676;2023-08-06T03:12:31;2.90;;;2.67;;
11125;SDS011;5617;54.046;10.676;2023-08-06T03:14:39;3.47;;;2.50;;
11125;SDS011;5617;54.046;10.676;2023-08-06T03:16:49;3.20;;;2.20;;
11125;SDS011;5617;54.046;10.676;2023-08-06T03:18:57;2.60;;;2.40;;
11125;SDS011;5617;54.046;10.676;2023-08-06T03:21:04;2.47;;;2.03;;
11125;SDS011;5617;54.046;10.676;2023-08-06T03:23:15;2.80;;;2.50;;
11125;SDS011;5617;54.046;10.676;2023-08-06T03:25:23;4.70;;;2.60;;
11125;SDS011;5617;54.046;10.676;2023-08-06T03:27:32;4.90;;;2.57;;
11125;SDS011;5617;54.046;10.676;2023-08-06T03:29:40;3.50;;;2.60;;
11125;SDS011;5617;54.046;10.676;2023-08-06T03:31:51;4.67;;;2.40;;
11125;SDS011;5617;54.046;10.676;2023-08-06T03:33:59;4.00;;;2.53;;
11125;SDS011;5617;54.046;10.676;2023-08-06T03:36:07;4.10;;;2.60;;
11125;SDS011;5617;54.046;10.676;2023-08-06T03:38:15;4.03;;;2.37;;
11125;SDS011;5617;54.046;10.676;2023-08-06T03:40:22;3.60;;;2.40;;
11125;SDS011;5617;54.046;10.676;2023-08-06T03:42:30;4.57;;;2.20;;
11125;SDS011;5617;54.046;10.676;2023-08-06T03:44:42;4.57;;;2.47;;
11125;SDS011;5617;54.046;10.676;2023-08-06T03:46:50;3.17;;;2.40;;
11125;SDS011;5617;54.046;10.676;2023-08-06T03:48:57;4.83;;;3.03;;
11125;SDS011;5617;54.046;10.676;2023-08-06T03:51:05;4.23;;;2.30;;
11125;SDS011;5617;54.046;10.676;2023-08-06T03:53:13;3.10;;;2.50;;
11125;SDS011;5617;54.046;10.676;2023-08-06T03:55:21;2.73;;;2.43;;
11125;SDS011;5617;54.046;10.676;2023-08-06T03:57:28;2.97;;;2.20;;
11125;SDS011;5617;54.046;10.676;2023-08-06T03:59:37;2.50;;;2.30;;
11125;SDS011;5617;54.046;10.676;2023-08-06T04:01:45;3.40;;;2.63;;
11125;SDS011;5617;54.046;10.676;2023-08-06T04:03:52;2.73;;;2.37;;
11125;SDS011;5617;54.046;10.676;2023-08-06T04:06:01;3.50;;;2.53;;
11125;SDS011;5617;54.046;10.676;2023-08-06T04:08:08;3.50;;;2.63;;
11125;SDS011;5617;54.046;10.676;2023-08-06T04:10:19;3.87;;;2.67;;
11125;SDS011;5617;54.046;10.676;2023-08-06T04:12:28;5.60;;;2.80;;
11125;SDS011;5617;54.046;10.676;2023-08-06T04:14:37;4.93;;;2.90;;
11125;SDS011;5617;54.046;10.676;2023-08-06T04:16:48;4.40;;;2.60;;
11125;SDS011;5617;54.046;10.676;2023-08-06T04:18:56;4.43;;;3.17;;
11125;SDS011;5617;54.046;10.676;2023-08-06T04:21:04;4.73;;;2.63;;
11125;SDS011;5617;54.046;10.676;2023-08-06T04:23:12;3.43;;;2.87;;
11125;SDS011;5617;54.046;10.676;2023-08-06T04:25:20;4.83;;;2.47;;
11125;SDS011;5617;54.046;10.676;2023-08-06T04:27:29;4.10;;;2.63;;
11125;SDS011;5617;54.046;10.676;2023-08-06T04:29:38;4.80;;;2.93;;
11125;SDS011;5617;54.046;10.676;2023-08-06T04:31:47;5.87;;;2.90;;
11125;SDS011;5617;54.046;10.676;2023-08-06T04:33:54;4.40;;;3.03;;
11125;SDS011;5617;54.046;10.676;2023-08-06T04:36:02;5.97;;;3.17;;
11125;SDS011;5617;54.046;10.676;2023-08-06T04:38:11;5.90;;;3.33;;
11125;SDS011;5617;54.046;10.676;2023-08-06T04:40:18;4.87;;;3.43;;
11125;SDS011;5617;54.046;10.676;2023-08-06T04:42:26;5.03;;;3.43;;
11125;SDS011;5617;54.046;10.676;2023-08-06T04:44:34;6.10;;;3.90;;
11125;SDS011;5617;54.046;10.676;2023-08-06T04:46:43;3.60;;;3.30;;
11125;SDS011;5617;54.046;10.676;2023-08-06T04:48:51;5.53;;;3.67;;
11125;SDS011;5617;54.046;10.676;2023-08-06T04:50:58;4.63;;;3.40;;
11125;SDS011;5617;54.046;10.676;2023-08-06T04:53:07;5.77;;;3.73;;
11125;SDS011;5617;54.046;10.676;2023-08-06T04:55:15;3.70;;;3.40;;
11125;SDS011;5617;54.046;10.676;2023-08-06T04:57:22;4.37;;;3.23;;
11125;SDS011;5617;54.046;10.676;2023-08-06T04:59:30;4.97;;;3.30;;
11125;SDS011;5617;54.046;10.676;2023-08-06T05:01:38;3.97;;;3.20;;
11125;SDS011;5617;54.046;10.676;2023-08-06T05:03:48;4.17;;;2.80;;
11125;SDS011;5617;54.046;10.676;2023-08-06T05:05:56;3.20;;;2.70;;
11125;SDS011;5617;54.046;10.676;2023-08-06T05:08:07;5.00;;;3.10;;
11125;SDS011;5617;54.046;10.676;2023-08-06T05:10:21;3.23;;;2.90;;
11125;SDS011;5617;54.046;10.676;2023-08-06T05:12:31;5.03;;;3.30;;
11125;SDS011;5617;54.046;10.676;2023-08-06T05:14:39;6.23;;;2.93;;
11125;SDS011;5617;54.046;10.676;2023-08-06T05:16:47;4.97;;;2.90;;
11125;SDS011;5617;54.046;10.676;2023-08-06T05:18:56;3.87;;;2.67;;
11125;SDS011;5617;54.046;10.676;2023-08-06T05:21:04;3.53;;;2.60;;
11125;SDS011;5617;54.046;10.676;2023-08-06T05:23:11;3.00;;;2.13;;
11125;SDS011;5617;54.046;10.676;2023-08-06T05:25:20;4.50;;;2.40;;
11125;SDS011;5617;54.046;10.676;2023-08-06T05:27:27;4.33;;;2.30;;
11125;SDS011;5617;54.046;10.676;2023-08-06T05:29:35;2.93;;;2.40;;
11125;SDS011;5617;54.046;10.676;2023-08-06T05:31:43;3.70;;;2.07;;
11125;SDS011;5617;54.046;10.676;2023-08-06T05:33:51;3.00;;;2.17;;
11125;SDS011;5617;54.046;10.676;2023-08-06T05:36:00;3.07;;;2.13;;
11125;SDS011;5617;54.046;10.676;2023-08-06T05:38:08;2.30;;;2.10;;
11125;SDS011;5617;54.046;10.676;2023-08-06T05:40:16;3.37;;;2.20;;
11125;SDS011;5617;54.046;10.676;2023-08-06T05:42:29;2.80;;;2.03;;
11125;SDS011;5617;54.046;10.676;2023-08-06T05:44:37;4.33;;;2.30;;
11125;SDS011;5617;54.046;10.676;2023-08-06T05:46:45;2.80;;;2.27;;
11125;SDS011;5617;54.046;10.676;2023-08-06T05:48:53;4.90;;;2.10;;
11125;SDS011;5617;54.046;10.676;2023-08-06T05:51:02;3.57;;;2.50;;
11125;SDS011;5617;54.046;10.676;2023-08-06T05:53:10;2.73;;;1.90;;
11125;SDS011;5617;54.046;10.676;2023-08-06T05:55:18;4.57;;;2.20;;
11125;SDS011;5617;54.046;10.676;2023-08-06T05:57:26;2.50;;;2.30;;
11125;SDS011;5617;54.046;10.676;2023-08-06T05:59:34;3.67;;;2.00;;
11125;SDS011;5617;54.046;10.676;2023-08-06T06:01:42;3.60;;;2.17;;
11125;SDS011;5617;54.046;10.676;2023-08-06T06:03:53;3.60;;;2.23;;
11125;SDS011;5617;54.046;10.676;2023-08-06T06:06:02;3.20;;;2.10;;
11125;SDS011;5617;54.046;10.676;2023-08-06T06:08:13;3.97;;;2.10;;
11125;SDS011;5617;54.046;10.676;2023-08-06T06:10:21;2.37;;;2.13;;
11125;SDS011;5617;54.046;10.676;2023-08-06T06:12:29;4.00;;;2.20;;
11125;SDS011;5617;54.046;10.676;2023-08-06T06:14:37;3.13;;;2.10;;
11125;SDS011;5617;54.046;10.676;2023-08-06T06:16:44;2.27;;;2.07;;
11125;SDS011;5617;54.046;10.676;2023-08-06T06:18:53;3.40;;;2.20;;
11125;SDS011;5617;54.046;10.676;2023-08-06T06:21:04;2.13;;;1.93;;
11125;SDS011;5617;54.046;10.676;2023-08-06T06:23:12;3.47;;;1.93;;
11125;SDS011;5617;54.046;10.676;2023-08-06T06:25:20;4.37;;;2.30;;
11125;SDS011;5617;54.046;10.676;2023-08-06T06:27:28;3.50;;;2.40;;
11125;SDS011;5617;54.046;10.676;2023-08-06T06:29:36;3.23;;;1.83;;
11125;SDS011;5617;54.046;10.676;2023-08-06T06:31:43;2.97;;;2.10;;
11125;SDS011;5617;54.046;10.676;2023-08-06T06:33:52;2.97;;;2.00;;
11125;SDS011;5617;54.046;10.676;2023-08-06T06:36:02;3.93;;;2.33;;
11125;SDS011;5617;54.046;10.676;2023-08-06T06:38:12;3.97;;;1.93;;
11125;SDS011;5617;54.046;10.676;2023-08-06T06:40:19;4.07;;;2.20;;
11125;SDS011;5617;54.046;10.676;2023-08-06T06:42:27;2.57;;;2.00;;
11125;SDS011;5617;54.046;10.676;2023-08-06T06:44:35;3.23;;;2.13;;
11125;SDS011;5617;54.046;10.676;2023-08-06T06:46:43;3.30;;;2.30;;
11125;SDS011;5617;54.046;10.676;2023-08-06T06:48:51;3.07;;;1.83;;
11125;SDS011;5617;54.046;10.676;2023-08-06T06:50:59;2.50;;;1.87;;
11125;SDS011;5617;54.046;10.676;2023-08-06T06:53:07;3.80;;;2.00;;
11125;SDS011;5617;54.046;10.676;2023-08-06T06:55:16;3.10;;;1.77;;
11125;SDS011;5617;54.046;10.676;2023-08-06T06:57:24;2.47;;;1.90;;
11125;SDS011;5617;54.046;10.676;2023-08-06T06:59:31;1.90;;;1.73;;
11125;SDS011;5617;54.046;10.676;2023-08-06T07:01:39;3.63;;;1.60;;
11125;SDS011;5617;54.046;10.676;2023-08-06T07:03:48;2.00;;;1.80;;
11125;SDS011;5617;54.046;10.676;2023-08-06T07:05:56;3.93;;;2.17;;
11125;SDS011;5617;54.046;10.676;2023-08-06T07:08:06;3.60;;;1.70;;
11125;SDS011;5617;54.046;10.676;2023-08-06T07:10:14;1.90;;;1.80;;
11125;SDS011;5617;54.046;10.676;2023-08-06T07:12:23;3.60;;;2.00;;
11125;SDS011;5617;54.046;10.676;2023-08-06T07:14:31;2.60;;;1.97;;
11125;SDS011;5617;54.046;10.676;2023-08-06T07:16:39;3.77;;;1.80;;
11125;SDS011;5617;54.046;10.676;2023-08-06T07:18:47;2.83;;;1.70;;
11125;SDS011;5617;54.046;10.676;2023-08-06T07:20:55;3.43;;;1.93;;
11125;SDS011;5617;54.046;10.676;2023-08-06T07:23:03;2.77;;;1.87;;
11125;SDS011;5617;54.046;10.676;2023-08-06T07:25:15;2.63;;;2.20;;
11125;SDS011;5617;54.046;10.676;2023-08-06T07:27:24;3.07;;;1.70;;
11125;SDS011;5617;54.046;10.676;2023-08-06T07:29:32;4.20;;;1.70;;
11125;SDS011;5617;54.046;10.676;2023-08-06T07:31:40;4.23;;;1.80;;
11125;SDS011;5617;54.046;10.676;2023-08-06T07:33:48;2.37;;;1.50;;
11125;SDS011;5617;54.046;10.676;2023-08-06T07:35:56;2.00;;;1.53;;
11125;SDS011;5617;54.046;10.676;2023-08-06T07:38:04;2.63;;;1.70;;
11125;SDS011;5617;54.046;10.676;2023-08-06T07:40:12;2.30;;;2.03;;
11125;SDS011;5617;54.046;10.676;2023-08-06T07:42:20;1.70;;;1.57;;
11125;SDS011;5617;54.046;10.676;2023-08-06T07:44:29;3.27;;;1.70;;
11125;SDS011;5617;54.046;10.676;2023-08-06T07:46:37;2.70;;;1.70;;
11125;SDS011;5617;54.046;10.676;2023-08-06T07:48:45;2.47;;;1.60;;
11125;SDS011;5617;54.046;10.676;2023-08-06T07:50:53;2.53;;;1.60;;
11125;SDS011;5617;54.046;10.676;2023-08-06T07:53:01;2.93;;;1.53;;
11125;SDS011;5617;54.046;10.676;2023-08-06T07:55:09;1.97;;;1.47;;
11125;SDS011;5617;54.046;10.676;2023-08-06T07:57:17;2.73;;;1.67;;
11125;SDS011;5617;54.046;10.676;2023-08-06T07:59:25;1.70;;;1.40;;
11125;SDS011;5617;54.046;10.676;2023-08-06T08:01:34;2.60;;;1.80;;
11125;SDS011;5617;54.046;10.676;2023-08-06T08:03:42;1.50;;;1.30;;
11125;SDS011;5617;54.046;10.676;2023-08-06T08:05:50;2.93;;;1.60;;
11125;SDS011;5617;54.046;10.676;2023-08-06T08:08:02;2.73;;;1.57;;
11125;SDS011;5617;54.046;10.676;2023-08-06T08:10:10;2.13;;;1.60;;
11125;SDS011;5617;54.046;10.676;2023-08-06T08:12:21;2.43;;;1.40;;
11125;SDS011;5617;54.046;10.676;2023-08-06T08:14:29;2.20;;;1.73;;
11125;SDS011;5617;54.046;10.676;2023-08-06T08:16:42;1.60;;;1.47;;
11125;SDS011;5617;54.046;10.676;2023-08-06T08:18:50;2.40;;;1.50;;
11125;SDS011;5617;54.046;10.676;2023-08-06T08:20:58;1.97;;;1.50;;
11125;SDS011;5617;54.046;10.676;2023-08-06T08:23:06;1.80;;;1.50;;
11125;SDS011;5617;54.046;10.676;2023-08-06T08:25:15;3.13;;;1.47;;
11125;SDS011;5617;54.046;10.676;2023-08-06T08:27:22;1.73;;;1.50;;
11125;SDS011;5617;54.046;10.676;2023-08-06T08:29:33;2.30;;;1.60;;
11125;SDS011;5617;54.046;10.676;2023-08-06T08:31:40;3.03;;;1.50;;
11125;SDS011;5617;54.046;10.676;2023-08-06T08:33:50;1.77;;;1.40;;
11125;SDS011;5617;54.046;10.676;2023-08-06T08:36:03;2.10;;;1.50;;
11125;SDS011;5617;54.046;10.676;2023-08-06T08:38:11;2.10;;;1.30;;
11125;SDS011;5617;54.046;10.676;2023-08-06T08:40:19;2.90;;;1.27;;
11125;SDS011;5617;54.046;10.676;2023-08-06T08:42:30;1.73;;;1.33;;
11125;SDS011;5617;54.046;10.676;2023-08-06T08:44:38;1.50;;;1.40;;
11125;SDS011;5617;54.046;10.676;2023-08-06T08:46:50;1.63;;;1.10;;
11125;SDS011;5617;54.046;10.676;2023-08-06T08:48:58;1.83;;;1.40;;
11125;SDS011;5617;54.046;10.676;2023-08-06T08:51:07;2.73;;;1.50;;
11125;SDS011;5617;54.046;10.676;2023-08-06T08:53:16;4.40;;;1.20;;
11125;SDS011;5617;54.046;10.676;2023-08-06T08:55:24;3.57;;;1.50;;
11125;SDS011;5617;54.046;10.676;2023-08-06T08:57:33;2.33;;;1.23;;
11125;SDS011;5617;54.046;10.676;2023-08-06T08:59:40;2.80;;;1.30;;
11125;SDS011;5617;54.046;10.676;2023-08-06T09:01:50;1.57;;;1.33;;
11125;SDS011;5617;54.046;10.676;2023-08-06T09:03:59;1.33;;;1.20;;
11125;SDS011;5617;54.046;10.676;2023-08-06T09:06:09;2.53;;;1.40;;
11125;SDS011;5617;54.046;10.676;2023-08-06T09:08:21;2.10;;;1.00;;
11125;SDS011;5617;54.046;10.676;2023-08-06T09:10:31;2.20;;;1.10;;
11125;SDS011;5617;54.046;10.676;2023-08-06T09:12:40;2.17;;;1.20;;
11125;SDS011;5617;54.046;10.676;2023-08-06T09:14:49;1.63;;;1.10;;
11125;SDS011;5617;54.046;10.676;2023-08-06T09:16:58;2.57;;;1.40;;
11125;SDS011;5617;54.046;10.676;2023-08-06T09:19:06;1.70;;;1.20;;
11125;SDS011;5617;54.046;10.676;2023-08-06T09:21:15;1.43;;;1.10;;
11125;SDS011;5617;54.046;10.676;2023-08-06T09:23:27;2.43;;;1.20;;
11125;SDS011;5617;54.046;10.676;2023-08-06T09:25:37;3.30;;;1.23;;
11125;SDS011;5617;54.046;10.676;2023-08-06T09:27:46;1.90;;;1.23;;
11125;SDS011;5617;54.046;10.676;2023-08-06T09:29:55;2.00;;;1.00;;
11125;SDS011;5617;54.046;10.676;2023-08-06T09:32:04;1.23;;;1.10;;
11125;SDS011;5617;54.046;10.676;2023-08-06T09:34:14;1.20;;;1.10;;
11125;SDS011;5617;54.046;10.676;2023-08-06T09:36:23;1.90;;;1.30;;
11125;SDS011;5617;54.046;10.676;2023-08-06T09:38:32;2.20;;;1.23;;
11125;SDS011;5617;54.046;10.676;2023-08-06T09:40:45;1.50;;;1.03;;
11125;SDS011;5617;54.046;10.676;2023-08-06T09:42:54;1.70;;;1.00;;
11125;SDS011;5617;54.046;10.676;2023-08-06T09:45:05;1.93;;;1.10;;
11125;SDS011;5617;54.046;10.676;2023-08-06T09:47:15;4.00;;;1.13;;
11125;SDS011;5617;54.046;10.676;2023-08-06T09:49:25;2.13;;;1.00;;
11125;SDS011;5617;54.046;10.676;2023-08-06T09:51:37;3.20;;;1.10;;
11125;SDS011;5617;54.046;10.676;2023-08-06T09:53:46;1.53;;;1.13;;
11125;SDS011;5617;54.046;10.676;2023-08-06T09:55:56;1.77;;;1.17;;
11125;SDS011;5617;54.046;10.676;2023-08-06T09:58:04;2.53;;;1.30;;
11125;SDS011;5617;54.046;10.676;2023-08-06T10:00:13;2.37;;;1.10;;
11125;SDS011;5617;54.046;10.676;2023-08-06T10:02:23;1.70;;;1.00;;
11125;SDS011;5617;54.046;10.676;2023-08-06T10:04:33;2.00;;;1.17;;
11125;SDS011;5617;54.046;10.676;2023-08-06T10:06:48;1.20;;;1.10;;
11125;SDS011;5617;54.046;10.676;2023-08-06T10:08:56;2.07;;;1.30;;
11125;SDS011;5617;54.046;10.676;2023-08-06T10:11:04;1.57;;;1.13;;
11125;SDS011;5617;54.046;10.676;2023-08-06T10:13:15;2.90;;;1.30;;
11125;SDS011;5617;54.046;10.676;2023-08-06T10:15:26;2.73;;;1.23;;
11125;SDS011;5617;54.046;10.676;2023-08-06T10:17:37;2.20;;;1.10;;
11125;SDS011;5617;54.046;10.676;2023-08-06T10:19:58;1.10;;;1.03;;
11125;SDS011;5617;54.046;10.676;2023-08-06T10:22:11;1.90;;;1.10;;
11125;SDS011;5617;54.046;10.676;2023-08-06T10:24:19;1.70;;;1.20;;
11125;SDS011;5617;54.046;10.676;2023-08-06T10:26:27;1.23;;;0.90;;
11125;SDS011;5617;54.046;10.676;2023-08-06T10:28:36;2.57;;;1.10;;
11125;SDS011;5617;54.046;10.676;2023-08-06T10:30:49;3.93;;;1.07;;
11125;SDS011;5617;54.046;10.676;2023-08-06T10:33:01;2.17;;;1.20;;
11125;SDS011;5617;54.046;10.676;2023-08-06T10:35:10;0.90;;;0.90;;
11125;SDS011;5617;54.046;10.676;2023-08-06T10:37:35;1.60;;;1.00;;
11125;SDS011;5617;54.046;10.676;2023-08-06T10:39:47;2.37;;;1.20;;
11125;SDS011;5617;54.046;10.676;2023-08-06T10:41:57;1.63;;;1.10;;
11125;SDS011;5617;54.046;10.676;2023-08-06T10:44:06;1.73;;;1.03;;
11125;SDS011;5617;54.046;10.676;2023-08-06T10:46:22;1.83;;;1.20;;
11125;SDS011;5617;54.046;10.676;2023-08-06T10:48:35;1.47;;;1.20;;
11125;SDS011;5617;54.046;10.676;2023-08-06T10:50:44;1.97;;;1.07;;
11125;SDS011;5617;54.046;10.676;2023-08-06T10:52:52;1.27;;;0.90;;
11125;SDS011;5617;54.046;10.676;2023-08-06T10:55:00;2.17;;;1.10;;
11125;SDS011;5617;54.046;10.676;2023-08-06T10:57:08;1.70;;;1.07;;
11125;SDS011;5617;54.046;10.676;2023-08-06T10:59:17;2.70;;;1.00;;
11125;SDS011;5617;54.046;10.676;2023-08-06T11:01:26;1.53;;;1.13;;
11125;SDS011;5617;54.046;10.676;2023-08-06T11:03:37;2.03;;;1.10;;
11125;SDS011;5617;54.046;10.676;2023-08-06T11:05:48;2.33;;;1.17;;
11125;SDS011;5617;54.046;10.676;2023-08-06T11:07:56;1.83;;;1.07;;
11125;SDS011;5617;54.046;10.676;2023-08-06T11:10:04;2.23;;;1.10;;
11125;SDS011;5617;54.046;10.676;2023-08-06T11:12:17;1.40;;;0.90;;
11125;SDS011;5617;54.046;10.676;2023-08-06T11:14:25;1.43;;;1.10;;
11125;SDS011;5617;54.046;10.676;2023-08-06T11:16:33;1.27;;;1.10;;
11125;SDS011;5617;54.046;10.676;2023-08-06T11:18:43;1.30;;;1.00;;
11125;SDS011;5617;54.046;10.676;2023-08-06T11:20:52;2.00;;;1.17;;
11125;SDS011;5617;54.046;10.676;2023-08-06T11:23:00;1.83;;;1.10;;
11125;SDS011;5617;54.046;10.676;2023-08-06T11:25:08;1.17;;;1.00;;
11125;SDS011;5617;54.046;10.676;2023-08-06T11:27:16;1.30;;;0.90;;
11125;SDS011;5617;54.046;10.676;2023-08-06T11:29:24;2.07;;;1.10;;
11125;SDS011;5617;54.046;10.676;2023-08-06T11:31:35;1.40;;;0.83;;
11125;SDS011;5617;54.046;10.676;2023-08-06T11:33:45;1.67;;;0.90;;
11125;SDS011;5617;54.046;10.676;2023-08-06T11:35:54;2.13;;;1.00;;
11125;SDS011;5617;54.046;10.676;2023-08-06T11:38:04;1.50;;;0.90;;
11125;SDS011;5617;54.046;10.676;2023-08-06T11:40:13;2.93;;;0.90;;
11125;SDS011;5617;54.046;10.676;2023-08-06T11:42:21;1.67;;;0.93;;
11125;SDS011;5617;54.046;10.676;2023-08-06T11:44:32;1.60;;;1.03;;
11125;SDS011;5617;54.046;10.676;2023-08-06T11:46:50;1.20;;;0.90;;
11125;SDS011;5617;54.046;10.676;2023-08-06T11:49:01;1.57;;;1.03;;
11125;SDS011;5617;54.046;10.676;2023-08-06T11:51:11;2.13;;;1.23;;
11125;SDS011;5617;54.046;10.676;2023-08-06T11:53:21;1.30;;;1.07;;
11125;SDS011;5617;54.046;10.676;2023-08-06T11:55:29;2.10;;;1.20;;
11125;SDS011;5617;54.046;10.676;2023-08-06T11:57:36;1.10;;;0.90;;
11125;SDS011;5617;54.046;10.676;2023-08-06T11:59:46;1.97;;;1.33;;
11125;SDS011;5617;54.046;10.676;2023-08-06T12:01:57;1.40;;;1.30;;
11125;SDS011;5617;54.046;10.676;2023-08-06T12:04:13;2.50;;;1.17;;
11125;SDS011;5617;54.046;10.676;2023-08-06T12:06:20;1.50;;;0.90;;
11125;SDS011;5617;54.046;10.676;2023-08-06T12:08:28;2.57;;;1.60;;
11125;SDS011;5617;54.046;10.676;2023-08-06T12:10:39;1.80;;;1.23;;
11125;SDS011;5617;54.046;10.676;2023-08-06T12:12:47;1.63;;;1.20;;
11125;SDS011;5617;54.046;10.676;2023-08-06T12:14:54;1.40;;;1.10;;
11125;SDS011;5617;54.046;10.676;2023-08-06T12:17:03;2.67;;;1.27;;
11125;SDS011;5617;54.046;10.676;2023-08-06T12:19:12;3.33;;;1.30;;
11125;SDS011;5617;54.046;10.676;2023-08-06T12:21:20;2.27;;;1.10;;
11125;SDS011;5617;54.046;10.676;2023-08-06T12:23:28;1.70;;;1.30;;
11125;SDS011;5617;54.046;10.676;2023-08-06T12:25:36;1.83;;;1.30;;
11125;SDS011;5617;54.046;10.676;2023-08-06T12:27:44;1.23;;;1.13;;
11125;SDS011;5617;54.046;10.676;2023-08-06T12:29:52;2.60;;;1.40;;
11125;SDS011;5617;54.046;10.676;2023-08-06T12:32:00;3.33;;;1.60;;
11125;SDS011;5617;54.046;10.676;2023-08-06T12:34:07;2.27;;;1.50;;
11125;SDS011;5617;54.046;10.676;2023-08-06T12:36:16;2.50;;;1.60;;
11125;SDS011;5617;54.046;10.676;2023-08-06T12:38:24;2.33;;;1.40;;
11125;SDS011;5617;54.046;10.676;2023-08-06T12:40:32;2.00;;;1.30;;
11125;SDS011;5617;54.046;10.676;2023-08-06T12:42:44;2.90;;;1.40;;
11125;SDS011;5617;54.046;10.676;2023-08-06T12:44:52;2.13;;;1.50;;
11125;SDS011;5617;54.046;10.676;2023-08-06T12:47:00;2.83;;;1.40;;
11125;SDS011;5617;54.046;10.676;2023-08-06T12:49:08;1.70;;;1.47;;
11125;SDS011;5617;54.046;10.676;2023-08-06T12:51:17;2.77;;;1.50;;
11125;SDS011;5617;54.046;10.676;2023-08-06T12:53:25;1.77;;;1.60;;
11125;SDS011;5617;54.046;10.676;2023-08-06T12:55:33;3.37;;;1.53;;
11125;SDS011;5617;54.046;10.676;2023-08-06T12:57:41;1.93;;;1.53;;